sensor_id;sensor_type;location;lat;lon;timestamp;P1;durP1;ratioP1;P2;durP2;ratioP2
18159;SDS011;9205;52.032;4.314;2023-03-01T00:02:18;8.50;;;5.10;;
18159;SDS011;9205;52.032;4.314;2023-03-01T00:04:49;5.90;;;4.00;;
18159;SDS011;9205;52.032;4.314;2023-03-01T00:07:17;10.23;;;4.60;;
18159;SDS011;9205;52.032;4.314;2023-03-01T00:09:50;6.43;;;4.07;;
18159;SDS011;9205;52.032;4.314;2023-03-01T00:12:18;8.30;;;4.77;;
18159;SDS011;9205;52.032;4.314;2023-03-01T00:14:45;7.53;;;4.20;;
18159;SDS011;9205;52.032;4.314;2023-03-01T00:17:13;8.37;;;4.67;;
18159;SDS011;9205;52.032;4.314;2023-03-01T00:19:43;8.27;;;4.97;;
18159;SDS011;9205;52.032;4.314;2023-03-01T00:22:20;7.47;;;4.20;;
18159;SDS011;9205;52.032;4.314;2023-03-01T00:24:55;8.37;;;4.57;;
18159;SDS011;9205;52.032;4.314;2023-03-01T00:27:22;7.47;;;4.67;;
18159;SDS011;9205;52.032;4.314;2023-03-01T00:29:51;8.53;;;5.00;;
18159;SDS011;9205;52.032;4.314;2023-03-01T00:32:19;7.17;;;4.40;;
18159;SDS011;9205;52.032;4.314;2023-03-01T00:34:47;9.60;;;5.40;;
18159;SDS011;9205;52.032;4.314;2023-03-01T00:37:27;7.97;;;4.87;;
18159;SDS011;9205;52.032;4.314;2023-03-01T00:39:54;9.40;;;4.53;;
18159;SDS011;9205;52.032;4.314;2023-03-01T00:42:22;9.80;;;5.17;;
18159;SDS011;9205;52.032;4.314;2023-03-01T00:44:50;10.93;;;5.57;;
18159;SDS011;9205;52.032;4.314;2023-03-01T00:47:18;9.53;;;5.10;;
18159;SDS011;9205;52.032;4.314;2023-03-01T00:49:48;10.67;;;4.57;;
18159;SDS011;9205;52.032;4.314;2023-03-01T00:52:18;10.83;;;4.90;;
18159;SDS011;9205;52.032;4.314;2023-03-01T00:54:48;7.73;;;4.47;;
18159;SDS011;9205;52.032;4.314;2023-03-01T00:57:18;10.90;;;5.30;;
18159;SDS011;9205;52.032;4.314;2023-03-01T00:59:49;10.13;;;5.20;;
18159;SDS011;9205;52.032;4.314;2023-03-01T01:02:17;12.10;;;5.57;;
18159;SDS011;9205;52.032;4.314;2023-03-01T01:04:45;9.20;;;5.33;;
18159;SDS011;9205;52.032;4.314;2023-03-01T01:07:20;9.03;;;5.50;;
18159;SDS011;9205;52.032;4.314;2023-03-01T01:09:51;9.53;;;5.07;;
18159;SDS011;9205;52.032;4.314;2023-03-01T01:12:20;9.13;;;5.23;;
18159;SDS011;9205;52.032;4.314;2023-03-01T01:14:47;14.07;;;5.30;;
18159;SDS011;9205;52.032;4.314;2023-03-01T01:17:15;14.00;;;5.80;;
18159;SDS011;9205;52.032;4.314;2023-03-01T01:19:49;9.83;;;5.10;;
18159;SDS011;9205;52.032;4.314;2023-03-01T01:22:23;12.27;;;5.50;;
18159;SDS011;9205;52.032;4.314;2023-03-01T01:24:56;9.27;;;4.97;;
18159;SDS011;9205;52.032;4.314;2023-03-01T01:27:24;10.47;;;5.10;;
18159;SDS011;9205;52.032;4.314;2023-03-01T01:29:52;12.57;;;6.23;;
18159;SDS011;9205;52.032;4.314;2023-03-01T01:32:20;10.53;;;5.33;;
18159;SDS011;9205;52.032;4.314;2023-03-01T01:34:53;12.07;;;6.23;;
18159;SDS011;9205;52.032;4.314;2023-03-01T01:37:26;11.57;;;5.60;;
18159;SDS011;9205;52.032;4.314;2023-03-01T01:40:06;11.00;;;5.93;;
18159;SDS011;9205;52.032;4.314;2023-03-01T01:42:39;10.67;;;5.27;;
18159;SDS011;9205;52.032;4.314;2023-03-01T01:45:31;10.73;;;5.97;;
18159;SDS011;9205;52.032;4.314;2023-03-01T01:48:05;12.43;;;6.50;;
18159;SDS011;9205;52.032;4.314;2023-03-01T01:50:40;15.80;;;6.53;;
18159;SDS011;9205;52.032;4.314;2023-03-01T01:53:10;11.63;;;5.97;;
18159;SDS011;9205;52.032;4.314;2023-03-01T01:55:44;11.20;;;5.97;;
18159;SDS011;9205;52.032;4.314;2023-03-01T01:58:15;12.13;;;5.93;;
18159;SDS011;9205;52.032;4.314;2023-03-01T02:00:47;11.40;;;6.10;;
18159;SDS011;9205;52.032;4.314;2023-03-01T02:03:17;14.30;;;6.20;;
18159;SDS011;9205;52.032;4.314;2023-03-01T02:06:03;11.50;;;5.90;;
18159;SDS011;9205;52.032;4.314;2023-03-01T02:08:47;14.00;;;6.57;;
18159;SDS011;9205;52.032;4.314;2023-03-01T02:11:27;14.50;;;6.10;;
18159;SDS011;9205;52.032;4.314;2023-03-01T02:14:18;14.43;;;6.00;;
18159;SDS011;9205;52.032;4.314;2023-03-01T02:16:46;17.00;;;6.67;;
18159;SDS011;9205;52.032;4.314;2023-03-01T02:19:28;12.90;;;6.63;;
18159;SDS011;9205;52.032;4.314;2023-03-01T02:22:17;10.73;;;5.70;;
18159;SDS011;9205;52.032;4.314;2023-03-01T02:24:55;12.20;;;6.30;;
18159;SDS011;9205;52.032;4.314;2023-03-01T02:27:46;11.33;;;5.90;;
18159;SDS011;9205;52.032;4.314;2023-03-01T02:30:28;11.90;;;6.03;;
18159;SDS011;9205;52.032;4.314;2023-03-01T02:33:26;13.90;;;6.57;;
18159;SDS011;9205;52.032;4.314;2023-03-01T02:35:58;11.87;;;6.30;;
18159;SDS011;9205;52.032;4.314;2023-03-01T02:38:28;12.60;;;6.67;;
18159;SDS011;9205;52.032;4.314;2023-03-01T02:40:58;12.97;;;6.87;;
18159;SDS011;9205;52.032;4.314;2023-03-01T02:43:33;17.23;;;7.13;;
18159;SDS011;9205;52.032;4.314;2023-03-01T02:46:18;14.83;;;7.37;;
18159;SDS011;9205;52.032;4.314;2023-03-01T02:49:20;12.83;;;6.73;;
18159;SDS011;9205;52.032;4.314;2023-03-01T02:55:01;14.83;;;6.83;;
18159;SDS011;9205;52.032;4.314;2023-03-01T02:57:38;14.87;;;7.53;;
18159;SDS011;9205;52.032;4.314;2023-03-01T03:00:13;15.17;;;7.70;;
18159;SDS011;9205;52.032;4.314;2023-03-01T03:02:52;18.77;;;7.97;;
18159;SDS011;9205;52.032;4.314;2023-03-01T03:05:23;15.03;;;7.60;;
18159;SDS011;9205;52.032;4.314;2023-03-01T03:07:58;16.60;;;7.60;;
18159;SDS011;9205;52.032;4.314;2023-03-01T03:10:34;16.90;;;6.70;;
18159;SDS011;9205;52.032;4.314;2023-03-01T03:13:06;18.77;;;7.13;;
18159;SDS011;9205;52.032;4.314;2023-03-01T03:15:37;13.77;;;7.30;;
18159;SDS011;9205;52.032;4.314;2023-03-01T03:18:11;12.37;;;7.50;;
18159;SDS011;9205;52.032;4.314;2023-03-01T03:20:41;12.23;;;6.70;;
18159;SDS011;9205;52.032;4.314;2023-03-01T03:23:18;15.67;;;7.67;;
18159;SDS011;9205;52.032;4.314;2023-03-01T03:25:55;14.43;;;7.43;;
18159;SDS011;9205;52.032;4.314;2023-03-01T03:28:23;15.03;;;7.70;;
18159;SDS011;9205;52.032;4.314;2023-03-01T03:30:53;13.93;;;7.87;;
18159;SDS011;9205;52.032;4.314;2023-03-01T03:33:34;14.40;;;7.20;;
18159;SDS011;9205;52.032;4.314;2023-03-01T03:36:13;14.77;;;7.43;;
18159;SDS011;9205;52.032;4.314;2023-03-01T03:38:43;16.53;;;7.00;;
18159;SDS011;9205;52.032;4.314;2023-03-01T03:41:22;16.60;;;7.67;;
18159;SDS011;9205;52.032;4.314;2023-03-01T03:43:50;17.23;;;7.70;;
18159;SDS011;9205;52.032;4.314;2023-03-01T03:46:21;16.10;;;8.47;;
18159;SDS011;9205;52.032;4.314;2023-03-01T03:48:51;17.83;;;7.87;;
18159;SDS011;9205;52.032;4.314;2023-03-01T03:51:27;16.00;;;7.80;;
18159;SDS011;9205;52.032;4.314;2023-03-01T03:54:01;15.07;;;7.33;;
18159;SDS011;9205;52.032;4.314;2023-03-01T03:56:31;18.20;;;8.27;;
18159;SDS011;9205;52.032;4.314;2023-03-01T03:59:02;16.37;;;8.03;;
18159;SDS011;9205;52.032;4.314;2023-03-01T04:01:32;17.93;;;8.47;;
18159;SDS011;9205;52.032;4.314;2023-03-01T04:04:02;14.90;;;7.80;;
18159;SDS011;9205;52.032;4.314;2023-03-01T04:06:33;16.23;;;7.23;;
18159;SDS011;9205;52.032;4.314;2023-03-01T04:09:01;15.53;;;7.80;;
18159;SDS011;9205;52.032;4.314;2023-03-01T04:11:29;17.47;;;7.83;;
18159;SDS011;9205;52.032;4.314;2023-03-01T04:13:59;17.57;;;8.23;;
18159;SDS011;9205;52.032;4.314;2023-03-01T04:16:32;17.33;;;8.27;;
18159;SDS011;9205;52.032;4.314;2023-03-01T04:19:00;16.83;;;8.43;;
18159;SDS011;9205;52.032;4.314;2023-03-01T04:21:28;16.00;;;7.63;;
18159;SDS011;9205;52.032;4.314;2023-03-01T04:23:56;17.43;;;8.37;;
18159;SDS011;9205;52.032;4.314;2023-03-01T04:26:24;17.50;;;8.30;;
18159;SDS011;9205;52.032;4.314;2023-03-01T04:28:55;17.87;;;8.50;;
18159;SDS011;9205;52.032;4.314;2023-03-01T04:31:28;17.50;;;8.90;;
18159;SDS011;9205;52.032;4.314;2023-03-01T04:33:56;17.27;;;7.93;;
18159;SDS011;9205;52.032;4.314;2023-03-01T04:36:26;15.97;;;8.40;;
18159;SDS011;9205;52.032;4.314;2023-03-01T04:39:02;19.27;;;8.43;;
18159;SDS011;9205;52.032;4.314;2023-03-01T04:41:40;19.53;;;8.40;;
18159;SDS011;9205;52.032;4.314;2023-03-01T04:44:08;18.13;;;9.00;;
18159;SDS011;9205;52.032;4.314;2023-03-01T04:46:36;17.33;;;8.53;;
18159;SDS011;9205;52.032;4.314;2023-03-01T04:49:04;17.27;;;9.37;;
18159;SDS011;9205;52.032;4.314;2023-03-01T04:51:41;16.10;;;8.63;;
18159;SDS011;9205;52.032;4.314;2023-03-01T04:54:12;20.10;;;8.73;;
18159;SDS011;9205;52.032;4.314;2023-03-01T04:56:43;17.03;;;9.17;;
18159;SDS011;9205;52.032;4.314;2023-03-01T04:59:10;21.23;;;9.20;;
18159;SDS011;9205;52.032;4.314;2023-03-01T05:01:40;17.60;;;8.47;;
18159;SDS011;9205;52.032;4.314;2023-03-01T05:04:10;16.40;;;8.57;;
18159;SDS011;9205;52.032;4.314;2023-03-01T05:06:42;18.00;;;8.60;;
18159;SDS011;9205;52.032;4.314;2023-03-01T05:09:10;16.47;;;8.47;;
18159;SDS011;9205;52.032;4.314;2023-03-01T05:11:43;17.87;;;7.93;;
18159;SDS011;9205;52.032;4.314;2023-03-01T05:14:11;19.67;;;8.50;;
18159;SDS011;9205;52.032;4.314;2023-03-01T05:16:39;18.53;;;8.67;;
18159;SDS011;9205;52.032;4.314;2023-03-01T05:19:07;19.33;;;9.07;;
18159;SDS011;9205;52.032;4.314;2023-03-01T05:21:42;19.30;;;9.13;;
18159;SDS011;9205;52.032;4.314;2023-03-01T05:24:29;20.03;;;8.93;;
18159;SDS011;9205;52.032;4.314;2023-03-01T05:26:59;16.70;;;8.00;;
18159;SDS011;9205;52.032;4.314;2023-03-01T05:29:28;19.60;;;8.63;;
18159;SDS011;9205;52.032;4.314;2023-03-01T05:32:02;19.90;;;9.43;;
18159;SDS011;9205;52.032;4.314;2023-03-01T05:34:31;17.77;;;8.60;;
18159;SDS011;9205;52.032;4.314;2023-03-01T05:37:03;16.33;;;8.43;;
18159;SDS011;9205;52.032;4.314;2023-03-01T05:39:33;20.17;;;8.43;;
18159;SDS011;9205;52.032;4.314;2023-03-01T05:42:01;23.40;;;9.43;;
18159;SDS011;9205;52.032;4.314;2023-03-01T05:44:28;18.63;;;8.77;;
18159;SDS011;9205;52.032;4.314;2023-03-01T05:46:57;18.33;;;8.37;;
18159;SDS011;9205;52.032;4.314;2023-03-01T05:49:33;17.83;;;8.43;;
18159;SDS011;9205;52.032;4.314;2023-03-01T05:52:02;17.90;;;8.67;;
18159;SDS011;9205;52.032;4.314;2023-03-01T05:54:39;16.77;;;8.67;;
18159;SDS011;9205;52.032;4.314;2023-03-01T05:57:09;18.90;;;9.20;;
18159;SDS011;9205;52.032;4.314;2023-03-01T05:59:38;21.20;;;8.90;;
18159;SDS011;9205;52.032;4.314;2023-03-01T06:02:06;16.57;;;8.20;;
18159;SDS011;9205;52.032;4.314;2023-03-01T06:04:34;17.30;;;8.57;;
18159;SDS011;9205;52.032;4.314;2023-03-01T06:07:07;21.27;;;9.47;;
18159;SDS011;9205;52.032;4.314;2023-03-01T06:09:35;15.57;;;8.40;;
18159;SDS011;9205;52.032;4.314;2023-03-01T06:12:02;19.23;;;10.07;;
18159;SDS011;9205;52.032;4.314;2023-03-01T06:14:31;15.47;;;8.47;;
18159;SDS011;9205;52.032;4.314;2023-03-01T06:16:59;32.07;;;16.37;;
18159;SDS011;9205;52.032;4.314;2023-03-01T06:19:27;24.00;;;10.80;;
18159;SDS011;9205;52.032;4.314;2023-03-01T06:21:54;23.73;;;10.07;;
18159;SDS011;9205;52.032;4.314;2023-03-01T06:24:23;18.70;;;9.13;;
18159;SDS011;9205;52.032;4.314;2023-03-01T06:26:52;19.60;;;9.60;;
18159;SDS011;9205;52.032;4.314;2023-03-01T06:29:20;18.37;;;7.93;;
18159;SDS011;9205;52.032;4.314;2023-03-01T06:31:51;16.50;;;9.00;;
18159;SDS011;9205;52.032;4.314;2023-03-01T06:34:19;17.43;;;8.63;;
18159;SDS011;9205;52.032;4.314;2023-03-01T06:36:47;17.33;;;8.83;;
18159;SDS011;9205;52.032;4.314;2023-03-01T06:39:16;15.53;;;8.20;;
18159;SDS011;9205;52.032;4.314;2023-03-01T06:41:47;19.83;;;8.80;;
18159;SDS011;9205;52.032;4.314;2023-03-01T06:44:14;18.90;;;9.07;;
18159;SDS011;9205;52.032;4.314;2023-03-01T06:46:41;15.37;;;8.37;;
18159;SDS011;9205;52.032;4.314;2023-03-01T06:49:11;19.53;;;7.77;;
18159;SDS011;9205;52.032;4.314;2023-03-01T06:51:42;18.53;;;8.63;;
18159;SDS011;9205;52.032;4.314;2023-03-01T06:54:10;15.43;;;7.40;;
18159;SDS011;9205;52.032;4.314;2023-03-01T06:56:38;17.37;;;8.00;;
18159;SDS011;9205;52.032;4.314;2023-03-01T06:59:07;18.03;;;8.17;;
18159;SDS011;9205;52.032;4.314;2023-03-01T07:01:35;15.30;;;7.17;;
18159;SDS011;9205;52.032;4.314;2023-03-01T07:04:02;14.37;;;7.87;;
18159;SDS011;9205;52.032;4.314;2023-03-01T07:06:31;14.33;;;7.47;;
18159;SDS011;9205;52.032;4.314;2023-03-01T07:08:59;15.37;;;7.27;;
18159;SDS011;9205;52.032;4.314;2023-03-01T07:11:27;14.37;;;7.53;;
18159;SDS011;9205;52.032;4.314;2023-03-01T07:13:54;16.20;;;7.10;;
18159;SDS011;9205;52.032;4.314;2023-03-01T07:16:25;17.47;;;7.70;;
18159;SDS011;9205;52.032;4.314;2023-03-01T07:18:57;20.60;;;7.37;;
18159;SDS011;9205;52.032;4.314;2023-03-01T07:21:24;15.50;;;7.13;;
18159;SDS011;9205;52.032;4.314;2023-03-01T07:23:55;17.00;;;7.90;;
18159;SDS011;9205;52.032;4.314;2023-03-01T07:26:23;12.67;;;6.63;;
18159;SDS011;9205;52.032;4.314;2023-03-01T07:28:51;14.87;;;7.10;;
18159;SDS011;9205;52.032;4.314;2023-03-01T07:31:18;15.77;;;7.47;;
18159;SDS011;9205;52.032;4.314;2023-03-01T07:33:47;14.50;;;7.10;;
18159;SDS011;9205;52.032;4.314;2023-03-01T07:36:15;12.63;;;6.67;;
18159;SDS011;9205;52.032;4.314;2023-03-01T07:38:42;16.77;;;8.00;;
18159;SDS011;9205;52.032;4.314;2023-03-01T07:41:10;18.23;;;7.33;;
18159;SDS011;9205;52.032;4.314;2023-03-01T07:43:38;13.47;;;7.83;;
18159;SDS011;9205;52.032;4.314;2023-03-01T07:46:05;13.67;;;6.77;;
18159;SDS011;9205;52.032;4.314;2023-03-01T07:48:33;17.10;;;7.80;;
18159;SDS011;9205;52.032;4.314;2023-03-01T07:51:02;15.20;;;6.93;;
18159;SDS011;9205;52.032;4.314;2023-03-01T07:53:32;17.87;;;7.87;;
18159;SDS011;9205;52.032;4.314;2023-03-01T07:56:01;14.67;;;7.30;;
18159;SDS011;9205;52.032;4.314;2023-03-01T07:58:31;14.83;;;6.90;;
18159;SDS011;9205;52.032;4.314;2023-03-01T08:01:01;14.07;;;7.50;;
18159;SDS011;9205;52.032;4.314;2023-03-01T08:03:29;11.10;;;6.30;;
18159;SDS011;9205;52.032;4.314;2023-03-01T08:05:58;14.97;;;6.63;;
18159;SDS011;9205;52.032;4.314;2023-03-01T08:08:28;14.23;;;7.10;;
18159;SDS011;9205;52.032;4.314;2023-03-01T08:10:57;16.20;;;7.10;;
18159;SDS011;9205;52.032;4.314;2023-03-01T08:13:26;13.80;;;7.10;;
18159;SDS011;9205;52.032;4.314;2023-03-01T08:15:54;14.90;;;7.33;;
18159;SDS011;9205;52.032;4.314;2023-03-01T08:18:28;17.87;;;6.80;;
18159;SDS011;9205;52.032;4.314;2023-03-01T08:20:55;14.37;;;7.40;;
18159;SDS011;9205;52.032;4.314;2023-03-01T08:23:29;14.90;;;7.23;;
18159;SDS011;9205;52.032;4.314;2023-03-01T08:26:02;12.90;;;6.30;;
18159;SDS011;9205;52.032;4.314;2023-03-01T08:28:32;13.47;;;6.67;;
18159;SDS011;9205;52.032;4.314;2023-03-01T08:31:02;15.67;;;6.97;;
18159;SDS011;9205;52.032;4.314;2023-03-01T08:33:39;15.17;;;7.07;;
18159;SDS011;9205;52.032;4.314;2023-03-01T08:36:08;16.77;;;8.10;;
18159;SDS011;9205;52.032;4.314;2023-03-01T08:38:37;14.50;;;7.53;;
18159;SDS011;9205;52.032;4.314;2023-03-01T08:41:04;15.83;;;8.10;;
18159;SDS011;9205;52.032;4.314;2023-03-01T08:43:32;17.10;;;8.57;;
18159;SDS011;9205;52.032;4.314;2023-03-01T08:45:59;14.87;;;7.83;;
18159;SDS011;9205;52.032;4.314;2023-03-01T08:48:28;16.43;;;9.17;;
18159;SDS011;9205;52.032;4.314;2023-03-01T08:50:56;19.83;;;8.67;;
18159;SDS011;9205;52.032;4.314;2023-03-01T08:53:23;17.97;;;8.43;;
18159;SDS011;9205;52.032;4.314;2023-03-01T08:55:52;17.90;;;9.27;;
18159;SDS011;9205;52.032;4.314;2023-03-01T08:58:20;19.00;;;8.83;;
18159;SDS011;9205;52.032;4.314;2023-03-01T09:00:48;18.90;;;9.17;;
18159;SDS011;9205;52.032;4.314;2023-03-01T09:03:17;14.87;;;8.17;;
18159;SDS011;9205;52.032;4.314;2023-03-01T09:05:50;17.80;;;9.53;;
18159;SDS011;9205;52.032;4.314;2023-03-01T09:08:23;17.37;;;8.40;;
18159;SDS011;9205;52.032;4.314;2023-03-01T09:10:58;18.27;;;9.23;;
18159;SDS011;9205;52.032;4.314;2023-03-01T09:13:31;21.50;;;9.20;;
18159;SDS011;9205;52.032;4.314;2023-03-01T09:16:01;18.70;;;8.93;;
18159;SDS011;9205;52.032;4.314;2023-03-01T09:18:35;16.30;;;8.17;;
18159;SDS011;9205;52.032;4.314;2023-03-01T09:21:03;18.33;;;7.47;;
18159;SDS011;9205;52.032;4.314;2023-03-01T09:23:33;13.37;;;7.27;;
18159;SDS011;9205;52.032;4.314;2023-03-01T09:26:09;13.83;;;6.40;;
18159;SDS011;9205;52.032;4.314;2023-03-01T09:28:42;15.07;;;6.97;;
18159;SDS011;9205;52.032;4.314;2023-03-01T09:31:19;13.87;;;6.53;;
18159;SDS011;9205;52.032;4.314;2023-03-01T09:33:52;14.97;;;7.27;;
18159;SDS011;9205;52.032;4.314;2023-03-01T09:36:21;11.53;;;6.33;;
18159;SDS011;9205;52.032;4.314;2023-03-01T09:38:56;12.63;;;7.63;;
18159;SDS011;9205;52.032;4.314;2023-03-01T09:41:31;14.10;;;6.73;;
18159;SDS011;9205;52.032;4.314;2023-03-01T09:44:13;13.63;;;6.23;;
18159;SDS011;9205;52.032;4.314;2023-03-01T09:46:53;13.93;;;5.63;;
18159;SDS011;9205;52.032;4.314;2023-03-01T09:49:23;14.17;;;6.40;;
18159;SDS011;9205;52.032;4.314;2023-03-01T09:52:19;10.73;;;5.90;;
18159;SDS011;9205;52.032;4.314;2023-03-01T09:55:49;12.70;;;5.40;;
18159;SDS011;9205;52.032;4.314;2023-03-01T10:01:33;7.63;;;4.63;;
18159;SDS011;9205;52.032;4.314;2023-03-01T10:04:35;7.73;;;4.47;;
18159;SDS011;9205;52.032;4.314;2023-03-01T10:07:21;8.40;;;4.43;;
18159;SDS011;9205;52.032;4.314;2023-03-01T10:10:04;7.37;;;3.60;;
18159;SDS011;9205;52.032;4.314;2023-03-01T10:15:37;6.73;;;4.47;;
18159;SDS011;9205;52.032;4.314;2023-03-01T10:18:31;8.47;;;4.53;;
18159;SDS011;9205;52.032;4.314;2023-03-01T10:21:07;7.80;;;4.40;;
18159;SDS011;9205;52.032;4.314;2023-03-01T10:23:49;8.20;;;4.63;;
18159;SDS011;9205;52.032;4.314;2023-03-01T10:26:29;8.83;;;4.90;;
18159;SDS011;9205;52.032;4.314;2023-03-01T10:29:11;7.87;;;4.40;;
18159;SDS011;9205;52.032;4.314;2023-03-01T10:31:43;6.83;;;4.13;;
18159;SDS011;9205;52.032;4.314;2023-03-01T10:34:14;8.60;;;4.50;;
18159;SDS011;9205;52.032;4.314;2023-03-01T10:36:49;9.80;;;4.90;;
18159;SDS011;9205;52.032;4.314;2023-03-01T10:39:22;5.97;;;3.90;;
18159;SDS011;9205;52.032;4.314;2023-03-01T10:41:59;11.23;;;4.70;;
18159;SDS011;9205;52.032;4.314;2023-03-01T10:44:41;8.33;;;4.60;;
18159;SDS011;9205;52.032;4.314;2023-03-01T10:47:14;8.17;;;4.57;;
18159;SDS011;9205;52.032;4.314;2023-03-01T10:50:00;8.53;;;4.17;;
18159;SDS011;9205;52.032;4.314;2023-03-01T10:52:30;9.47;;;4.23;;
18159;SDS011;9205;52.032;4.314;2023-03-01T10:55:03;7.77;;;4.00;;
18159;SDS011;9205;52.032;4.314;2023-03-01T10:58:05;6.47;;;4.07;;
18159;SDS011;9205;52.032;4.314;2023-03-01T11:00:49;9.60;;;4.40;;
18159;SDS011;9205;52.032;4.314;2023-03-01T11:03:22;6.37;;;3.87;;
18159;SDS011;9205;52.032;4.314;2023-03-01T11:05:56;7.10;;;3.67;;
18159;SDS011;9205;52.032;4.314;2023-03-01T11:08:40;8.10;;;3.63;;
18159;SDS011;9205;52.032;4.314;2023-03-01T11:14:00;6.60;;;3.87;;
18159;SDS011;9205;52.032;4.314;2023-03-01T11:16:34;9.07;;;4.23;;
18159;SDS011;9205;52.032;4.314;2023-03-01T11:19:16;8.80;;;4.20;;
18159;SDS011;9205;52.032;4.314;2023-03-01T11:21:57;8.47;;;4.77;;
18159;SDS011;9205;52.032;4.314;2023-03-01T11:24:34;8.70;;;4.80;;
18159;SDS011;9205;52.032;4.314;2023-03-01T11:27:13;8.07;;;4.20;;
18159;SDS011;9205;52.032;4.314;2023-03-01T11:29:55;8.13;;;4.53;;
18159;SDS011;9205;52.032;4.314;2023-03-01T11:32:32;8.30;;;4.70;;
18159;SDS011;9205;52.032;4.314;2023-03-01T11:35:10;12.03;;;4.80;;
18159;SDS011;9205;52.032;4.314;2023-03-01T11:37:51;7.67;;;4.60;;
18159;SDS011;9205;52.032;4.314;2023-03-01T11:40:39;10.60;;;4.70;;
18159;SDS011;9205;52.032;4.314;2023-03-01T11:43:15;9.23;;;5.10;;
18159;SDS011;9205;52.032;4.314;2023-03-01T11:45:56;10.00;;;4.93;;
18159;SDS011;9205;52.032;4.314;2023-03-01T11:48:52;9.63;;;5.20;;
18159;SDS011;9205;52.032;4.314;2023-03-01T11:51:43;9.73;;;4.70;;
18159;SDS011;9205;52.032;4.314;2023-03-01T11:54:26;8.47;;;4.97;;
18159;SDS011;9205;52.032;4.314;2023-03-01T11:57:10;12.77;;;4.80;;
18159;SDS011;9205;52.032;4.314;2023-03-01T12:03:21;11.00;;;5.43;;
18159;SDS011;9205;52.032;4.314;2023-03-01T12:09:09;10.30;;;5.37;;
18159;SDS011;9205;52.032;4.314;2023-03-01T12:12:00;9.87;;;5.37;;
18159;SDS011;9205;52.032;4.314;2023-03-01T12:15:11;9.87;;;5.50;;
18159;SDS011;9205;52.032;4.314;2023-03-01T12:18:13;8.90;;;4.90;;
18159;SDS011;9205;52.032;4.314;2023-03-01T12:21:03;10.13;;;5.53;;
18159;SDS011;9205;52.032;4.314;2023-03-01T12:27:05;10.37;;;5.63;;
18159;SDS011;9205;52.032;4.314;2023-03-01T12:29:57;11.83;;;4.80;;
18159;SDS011;9205;52.032;4.314;2023-03-01T12:32:49;11.63;;;5.33;;
18159;SDS011;9205;52.032;4.314;2023-03-01T12:35:48;11.37;;;5.63;;
18159;SDS011;9205;52.032;4.314;2023-03-01T12:38:41;9.20;;;5.10;;
18159;SDS011;9205;52.032;4.314;2023-03-01T12:44:29;11.00;;;5.33;;
18159;SDS011;9205;52.032;4.314;2023-03-01T12:47:15;9.83;;;5.03;;
18159;SDS011;9205;52.032;4.314;2023-03-01T12:50:02;11.33;;;4.90;;
18159;SDS011;9205;52.032;4.314;2023-03-01T12:52:41;12.67;;;5.47;;
18159;SDS011;9205;52.032;4.314;2023-03-01T12:55:18;10.63;;;5.13;;
18159;SDS011;9205;52.032;4.314;2023-03-01T12:58:00;8.27;;;4.57;;
18159;SDS011;9205;52.032;4.314;2023-03-01T13:00:44;9.50;;;4.57;;
18159;SDS011;9205;52.032;4.314;2023-03-01T13:03:28;9.20;;;5.17;;
18159;SDS011;9205;52.032;4.314;2023-03-01T13:06:23;12.80;;;5.37;;
18159;SDS011;9205;52.032;4.314;2023-03-01T13:09:04;11.80;;;5.57;;
18159;SDS011;9205;52.032;4.314;2023-03-01T13:11:41;10.47;;;5.40;;
18159;SDS011;9205;52.032;4.314;2023-03-01T13:17:31;11.87;;;5.27;;
18159;SDS011;9205;52.032;4.314;2023-03-01T13:20:14;10.23;;;5.60;;
18159;SDS011;9205;52.032;4.314;2023-03-01T13:22:44;11.60;;;5.77;;
18159;SDS011;9205;52.032;4.314;2023-03-01T13:25:17;13.53;;;6.33;;
18159;SDS011;9205;52.032;4.314;2023-03-01T13:27:47;10.10;;;5.60;;
18159;SDS011;9205;52.032;4.314;2023-03-01T13:36:10;12.63;;;5.47;;
18159;SDS011;9205;52.032;4.314;2023-03-01T13:42:02;10.17;;;5.10;;
18159;SDS011;9205;52.032;4.314;2023-03-01T13:44:30;11.00;;;4.90;;
18159;SDS011;9205;52.032;4.314;2023-03-01T13:47:07;9.23;;;4.93;;
18159;SDS011;9205;52.032;4.314;2023-03-01T13:49:46;9.77;;;4.53;;
18159;SDS011;9205;52.032;4.314;2023-03-01T13:52:30;9.57;;;4.57;;
18159;SDS011;9205;52.032;4.314;2023-03-01T13:55:15;9.93;;;5.20;;
18159;SDS011;9205;52.032;4.314;2023-03-01T13:57:49;9.80;;;4.97;;
18159;SDS011;9205;52.032;4.314;2023-03-01T14:00:25;7.17;;;4.53;;
18159;SDS011;9205;52.032;4.314;2023-03-01T14:03:05;8.97;;;4.70;;
18159;SDS011;9205;52.032;4.314;2023-03-01T14:05:39;8.90;;;4.93;;
18159;SDS011;9205;52.032;4.314;2023-03-01T14:08:19;10.20;;;4.67;;
18159;SDS011;9205;52.032;4.314;2023-03-01T14:10:53;7.33;;;4.23;;
18159;SDS011;9205;52.032;4.314;2023-03-01T14:13:48;6.60;;;3.97;;
18159;SDS011;9205;52.032;4.314;2023-03-01T14:16:35;7.03;;;3.70;;
18159;SDS011;9205;52.032;4.314;2023-03-01T14:19:16;7.83;;;3.83;;
18159;SDS011;9205;52.032;4.314;2023-03-01T14:21:58;6.40;;;4.00;;
18159;SDS011;9205;52.032;4.314;2023-03-01T14:24:32;6.53;;;3.80;;
18159;SDS011;9205;52.032;4.314;2023-03-01T14:27:14;7.57;;;4.07;;
18159;SDS011;9205;52.032;4.314;2023-03-01T14:29:43;7.53;;;4.03;;
18159;SDS011;9205;52.032;4.314;2023-03-01T14:32:22;7.30;;;3.80;;
18159;SDS011;9205;52.032;4.314;2023-03-01T14:34:55;6.20;;;3.60;;
18159;SDS011;9205;52.032;4.314;2023-03-01T14:37:25;7.03;;;3.73;;
18159;SDS011;9205;52.032;4.314;2023-03-01T14:39:55;5.97;;;3.47;;
18159;SDS011;9205;52.032;4.314;2023-03-01T14:42:26;8.23;;;3.70;;
18159;SDS011;9205;52.032;4.314;2023-03-01T14:45:01;5.80;;;3.50;;
18159;SDS011;9205;52.032;4.314;2023-03-01T14:47:32;5.83;;;3.40;;
18159;SDS011;9205;52.032;4.314;2023-03-01T14:50:08;5.13;;;3.33;;
18159;SDS011;9205;52.032;4.314;2023-03-01T14:52:50;7.10;;;3.83;;
18159;SDS011;9205;52.032;4.314;2023-03-01T14:55:22;7.77;;;4.23;;
18159;SDS011;9205;52.032;4.314;2023-03-01T14:57:56;8.43;;;4.17;;
18159;SDS011;9205;52.032;4.314;2023-03-01T15:00:25;8.57;;;4.43;;
18159;SDS011;9205;52.032;4.314;2023-03-01T15:03:06;9.67;;;4.37;;
18159;SDS011;9205;52.032;4.314;2023-03-01T15:05:41;7.13;;;3.87;;
18159;SDS011;9205;52.032;4.314;2023-03-01T15:08:15;8.60;;;4.63;;
18159;SDS011;9205;52.032;4.314;2023-03-01T15:10:56;9.30;;;4.33;;
18159;SDS011;9205;52.032;4.314;2023-03-01T15:13:29;8.07;;;4.77;;
18159;SDS011;9205;52.032;4.314;2023-03-01T15:16:05;9.63;;;4.77;;
18159;SDS011;9205;52.032;4.314;2023-03-01T15:18:43;7.23;;;3.77;;
18159;SDS011;9205;52.032;4.314;2023-03-01T15:21:18;11.67;;;3.97;;
18159;SDS011;9205;52.032;4.314;2023-03-01T15:23:52;7.03;;;4.17;;
18159;SDS011;9205;52.032;4.314;2023-03-01T15:26:25;7.77;;;4.10;;
18159;SDS011;9205;52.032;4.314;2023-03-01T15:28:57;6.63;;;3.63;;
18159;SDS011;9205;52.032;4.314;2023-03-01T15:31:28;8.17;;;4.30;;
18159;SDS011;9205;52.032;4.314;2023-03-01T15:34:07;6.83;;;3.47;;
18159;SDS011;9205;52.032;4.314;2023-03-01T15:36:52;8.07;;;3.83;;
18159;SDS011;9205;52.032;4.314;2023-03-01T15:39:36;6.57;;;3.50;;
18159;SDS011;9205;52.032;4.314;2023-03-01T15:42:09;5.20;;;3.30;;
18159;SDS011;9205;52.032;4.314;2023-03-01T15:44:39;7.33;;;3.23;;
18159;SDS011;9205;52.032;4.314;2023-03-01T15:47:25;5.20;;;3.47;;
18159;SDS011;9205;52.032;4.314;2023-03-01T15:49:56;6.33;;;3.60;;
18159;SDS011;9205;52.032;4.314;2023-03-01T15:52:28;7.07;;;3.70;;
18159;SDS011;9205;52.032;4.314;2023-03-01T15:55:05;9.00;;;4.20;;
18159;SDS011;9205;52.032;4.314;2023-03-01T15:57:42;7.67;;;3.90;;
18159;SDS011;9205;52.032;4.314;2023-03-01T16:00:10;7.97;;;4.20;;
18159;SDS011;9205;52.032;4.314;2023-03-01T16:02:41;8.93;;;4.13;;
18159;SDS011;9205;52.032;4.314;2023-03-01T16:05:15;7.50;;;3.60;;
18159;SDS011;9205;52.032;4.314;2023-03-01T16:07:48;8.23;;;4.13;;
18159;SDS011;9205;52.032;4.314;2023-03-01T16:10:16;6.87;;;3.70;;
18159;SDS011;9205;52.032;4.314;2023-03-01T16:12:53;6.10;;;3.50;;
18159;SDS011;9205;52.032;4.314;2023-03-01T16:15:22;6.57;;;3.77;;